sensor_id;sensor_type;location;lat;lon;timestamp;pressure;altitude;pressure_sealevel;temperature
14023;BMP180;7086;48.116;11.580;2023-05-07T00:02:04;95264.00;;;18.50
14023;BMP180;7086;48.116;11.580;2023-05-07T00:04:31;95268.00;;;18.60
14023;BMP180;7086;48.116;11.580;2023-05-07T00:07:02;95260.00;;;18.40
14023;BMP180;7086;48.116;11.580;2023-05-07T00:09:29;95250.00;;;18.40
14023;BMP180;7086;48.116;11.580;2023-05-07T00:11:55;95267.00;;;18.50
14023;BMP180;7086;48.116;11.580;2023-05-07T00:14:22;95264.00;;;18.40
14023;BMP180;7086;48.116;11.580;2023-05-07T00:16:49;95273.00;;;18.40
14023;BMP180;7086;48.116;11.580;2023-05-07T00:19:17;95274.00;;;18.40
14023;BMP180;7086;48.116;11.580;2023-05-07T00:21:44;95273.00;;;18.40
14023;BMP180;7086;48.116;11.580;2023-05-07T00:24:11;95245.00;;;18.20
14023;BMP180;7086;48.116;11.580;2023-05-07T00:26:38;95239.00;;;18.20
14023;BMP180;7086;48.116;11.580;2023-05-07T00:29:05;95262.00;;;18.20
14023;BMP180;7086;48.116;11.580;2023-05-07T00:31:32;95264.00;;;18.20
14023;BMP180;7086;48.116;11.580;2023-05-07T00:33:58;95226.00;;;18.20
14023;BMP180;7086;48.116;11.580;2023-05-07T00:36:27;95247.00;;;18.10
14023;BMP180;7086;48.116;11.580;2023-05-07T00:38:54;95247.00;;;18.10
14023;BMP180;7086;48.116;11.580;2023-05-07T00:41:21;95251.00;;;18.10
14023;BMP180;7086;48.116;11.580;2023-05-07T00:43:48;95241.00;;;18.10
14023;BMP180;7086;48.116;11.580;2023-05-07T00:46:17;95252.00;;;18.10
14023;BMP180;7086;48.116;11.580;2023-05-07T00:48:44;95240.00;;;18.10
14023;BMP180;7086;48.116;11.580;2023-05-07T00:51:11;95260.00;;;18.10
14023;BMP180;7086;48.116;11.580;2023-05-07T00:53:39;95264.00;;;18.10
14023;BMP180;7086;48.116;11.580;2023-05-07T00:56:06;95263.00;;;18.10
14023;BMP180;7086;48.116;11.580;2023-05-07T00:58:33;95249.00;;;18.00
14023;BMP180;7086;48.116;11.580;2023-05-07T01:01:01;95258.00;;;18.00
14023;BMP180;7086;48.116;11.580;2023-05-07T01:03:28;95241.00;;;18.00
14023;BMP180;7086;48.116;11.580;2023-05-07T01:05:56;95263.00;;;18.00
14023;BMP180;7086;48.116;11.580;2023-05-07T01:08:24;95248.00;;;18.00
14023;BMP180;7086;48.116;11.580;2023-05-07T01:10:55;95208.00;;;18.00
14023;BMP180;7086;48.116;11.580;2023-05-07T01:13:22;95254.00;;;17.90
14023;BMP180;7086;48.116;11.580;2023-05-07T01:15:50;95247.00;;;17.90
14023;BMP180;7086;48.116;11.580;2023-05-07T01:18:17;95257.00;;;18.00
14023;BMP180;7086;48.116;11.580;2023-05-07T01:20:45;95259.00;;;18.00
14023;BMP180;7086;48.116;11.580;2023-05-07T01:23:13;95257.00;;;17.90
14023;BMP180;7086;48.116;11.580;2023-05-07T01:25:41;95252.00;;;17.90
14023;BMP180;7086;48.116;11.580;2023-05-07T01:28:07;95253.00;;;17.90
14023;BMP180;7086;48.116;11.580;2023-05-07T01:30:34;95245.00;;;17.90
14023;BMP180;7086;48.116;11.580;2023-05-07T01:33:04;95250.00;;;17.90
14023;BMP180;7086;48.116;11.580;2023-05-07T01:35:37;95243.00;;;17.90
14023;BMP180;7086;48.116;11.580;2023-05-07T01:38:05;95242.00;;;17.90
14023;BMP180;7086;48.116;11.580;2023-05-07T01:40:34;95248.00;;;17.80
14023;BMP180;7086;48.116;11.580;2023-05-07T01:43:01;95241.00;;;17.80
14023;BMP180;7086;48.116;11.580;2023-05-07T01:45:28;95244.00;;;17.80
14023;BMP180;7086;48.116;11.580;2023-05-07T01:47:58;95244.00;;;17.70
14023;BMP180;7086;48.116;11.580;2023-05-07T01:50:25;95232.00;;;17.70
14023;BMP180;7086;48.116;11.580;2023-05-07T01:52:52;95237.00;;;17.70
14023;BMP180;7086;48.116;11.580;2023-05-07T01:55:19;95236.00;;;17.70
14023;BMP180;7086;48.116;11.580;2023-05-07T01:57:47;95240.00;;;17.60
14023;BMP180;7086;48.116;11.580;2023-05-07T02:00:14;95244.00;;;17.70
14023;BMP180;7086;48.116;11.580;2023-05-07T02:02:42;95248.00;;;17.60
14023;BMP180;7086;48.116;11.580;2023-05-07T02:05:09;95239.00;;;17.70
14023;BMP180;7086;48.116;11.580;2023-05-07T02:07:36;95244.00;;;17.60
14023;BMP180;7086;48.116;11.580;2023-05-07T02:10:03;95259.00;;;17.60
14023;BMP180;7086;48.116;11.580;2023-05-07T02:12:30;95246.00;;;17.60
14023;BMP180;7086;48.116;11.580;2023-05-07T02:14:58;95254.00;;;17.60
14023;BMP180;7086;48.116;11.580;2023-05-07T02:17:25;95249.00;;;17.50
14023;BMP180;7086;48.116;11.580;2023-05-07T02:19:52;95151.00;;;17.50
14023;BMP180;7086;48.116;11.580;2023-05-07T02:22:19;95212.00;;;17.50
14023;BMP180;7086;48.116;11.580;2023-05-07T02:24:46;95231.00;;;17.40
14023;BMP180;7086;48.116;11.580;2023-05-07T02:27:12;95247.00;;;17.40
14023;BMP180;7086;48.116;11.580;2023-05-07T02:29:39;95249.00;;;17.30
14023;BMP180;7086;48.116;11.580;2023-05-07T02:32:07;95252.00;;;17.30
14023;BMP180;7086;48.116;11.580;2023-05-07T02:34:34;95246.00;;;17.20
14023;BMP180;7086;48.116;11.580;2023-05-07T02:37:01;95257.00;;;17.20
14023;BMP180;7086;48.116;11.580;2023-05-07T02:39:28;95247.00;;;17.10
14023;BMP180;7086;48.116;11.580;2023-05-07T02:41:55;95241.00;;;17.00
14023;BMP180;7086;48.116;11.580;2023-05-07T02:44:21;95240.00;;;17.00
14023;BMP180;7086;48.116;11.580;2023-05-07T02:46:48;95246.00;;;17.00
14023;BMP180;7086;48.116;11.580;2023-05-07T02:49:16;95242.00;;;16.90
14023;BMP180;7086;48.116;11.580;2023-05-07T02:51:43;95238.00;;;16.90
14023;BMP180;7086;48.116;11.580;2023-05-07T02:54:10;95254.00;;;16.90
14023;BMP180;7086;48.116;11.580;2023-05-07T02:56:36;95243.00;;;16.90
14023;BMP180;7086;48.116;11.580;2023-05-07T02:59:03;95257.00;;;16.90
14023;BMP180;7086;48.116;11.580;2023-05-07T03:01:30;95247.00;;;16.90
14023;BMP180;7086;48.116;11.580;2023-05-07T03:03:57;95236.00;;;16.90
14023;BMP180;7086;48.116;11.580;2023-05-07T03:06:25;95247.00;;;16.90
14023;BMP180;7086;48.116;11.580;2023-05-07T03:08:52;95247.00;;;16.90
14023;BMP180;7086;48.116;11.580;2023-05-07T03:11:19;95173.00;;;16.80
14023;BMP180;7086;48.116;11.580;2023-05-07T03:13:46;95239.00;;;16.70
14023;BMP180;7086;48.116;11.580;2023-05-07T03:16:14;95235.00;;;16.80
14023;BMP180;7086;48.116;11.580;2023-05-07T03:18:41;95235.00;;;16.80
14023;BMP180;7086;48.116;11.580;2023-05-07T03:21:08;95249.00;;;16.80
14023;BMP180;7086;48.116;11.580;2023-05-07T03:23:36;95240.00;;;16.80
14023;BMP180;7086;48.116;11.580;2023-05-07T03:26:03;95223.00;;;16.70
14023;BMP180;7086;48.116;11.580;2023-05-07T03:28:30;95211.00;;;16.70
14023;BMP180;7086;48.116;11.580;2023-05-07T03:30:56;95195.00;;;16.70
14023;BMP180;7086;48.116;11.580;2023-05-07T03:33:23;95223.00;;;16.70
14023;BMP180;7086;48.116;11.580;2023-05-07T03:35:50;95229.00;;;16.70
14023;BMP180;7086;48.116;11.580;2023-05-07T03:38:17;95234.00;;;16.70
14023;BMP180;7086;48.116;11.580;2023-05-07T03:40:45;95232.00;;;16.70
14023;BMP180;7086;48.116;11.580;2023-05-07T03:43:12;95206.00;;;16.70
14023;BMP180;7086;48.116;11.580;2023-05-07T03:45:39;95227.00;;;16.70
14023;BMP180;7086;48.116;11.580;2023-05-07T03:48:05;95233.00;;;16.70
14023;BMP180;7086;48.116;11.580;2023-05-07T03:50:32;95207.00;;;16.70
14023;BMP180;7086;48.116;11.580;2023-05-07T03:53:00;95206.00;;;16.70
14023;BMP180;7086;48.116;11.580;2023-05-07T03:55:27;95222.00;;;16.70
14023;BMP180;7086;48.116;11.580;2023-05-07T03:57:56;95216.00;;;16.70
14023;BMP180;7086;48.116;11.580;2023-05-07T04:00:23;95234.00;;;16.70
14023;BMP180;7086;48.116;11.580;2023-05-07T04:02:49;95243.00;;;16.70
14023;BMP180;7086;48.116;11.580;2023-05-07T04:05:16;95232.00;;;16.60
14023;BMP180;7086;48.116;11.580;2023-05-07T04:07:43;95250.00;;;16.60
14023;BMP180;7086;48.116;11.580;2023-05-07T04:10:10;95249.00;;;16.60
14023;BMP180;7086;48.116;11.580;2023-05-07T04:12:38;95239.00;;;16.60
14023;BMP180;7086;48.116;11.580;2023-05-07T04:15:07;95253.00;;;16.50
14023;BMP180;7086;48.116;11.580;2023-05-07T04:17:34;95253.00;;;16.60
14023;BMP180;7086;48.116;11.580;2023-05-07T04:20:02;95253.00;;;16.60
14023;BMP180;7086;48.116;11.580;2023-05-07T04:22:29;95260.00;;;16.50
14023;BMP180;7086;48.116;11.580;2023-05-07T04:24:56;95252.00;;;16.60
14023;BMP180;7086;48.116;11.580;2023-05-07T04:27:22;95266.00;;;16.60
14023;BMP180;7086;48.116;11.580;2023-05-07T04:29:49;95270.00;;;16.70
14023;BMP180;7086;48.116;11.580;2023-05-07T04:32:18;95271.00;;;16.70
14023;BMP180;7086;48.116;11.580;2023-05-07T04:34:45;95266.00;;;16.70
14023;BMP180;7086;48.116;11.580;2023-05-07T04:37:12;95269.00;;;16.80
14023;BMP180;7086;48.116;11.580;2023-05-07T04:39:39;95262.00;;;16.70
14023;BMP180;7086;48.116;11.580;2023-05-07T04:42:05;95259.00;;;16.90
14023;BMP180;7086;48.116;11.580;2023-05-07T04:44:34;95255.00;;;16.90
14023;BMP180;7086;48.116;11.580;2023-05-07T04:47:02;95166.00;;;17.00
14023;BMP180;7086;48.116;11.580;2023-05-07T04:49:30;95271.00;;;17.00
14023;BMP180;7086;48.116;11.580;2023-05-07T04:51:57;95245.00;;;17.20
14023;BMP180;7086;48.116;11.580;2023-05-07T04:54:24;95270.00;;;17.30
14023;BMP180;7086;48.116;11.580;2023-05-07T04:56:50;95269.00;;;17.40
14023;BMP180;7086;48.116;11.580;2023-05-07T04:59:17;95266.00;;;17.40
14023;BMP180;7086;48.116;11.580;2023-05-07T05:01:44;95269.00;;;17.50
14023;BMP180;7086;48.116;11.580;2023-05-07T05:04:11;95274.00;;;17.50
14023;BMP180;7086;48.116;11.580;2023-05-07T05:06:39;95280.00;;;17.60
14023;BMP180;7086;48.116;11.580;2023-05-07T05:09:06;95273.00;;;17.60
14023;BMP180;7086;48.116;11.580;2023-05-07T05:11:33;95276.00;;;17.70
14023;BMP180;7086;48.116;11.580;2023-05-07T05:14:00;95275.00;;;17.70
14023;BMP180;7086;48.116;11.580;2023-05-07T05:16:27;95282.00;;;17.70
14023;BMP180;7086;48.116;11.580;2023-05-07T05:18:54;95278.00;;;17.80
14023;BMP180;7086;48.116;11.580;2023-05-07T05:21:21;95271.00;;;17.80
14023;BMP180;7086;48.116;11.580;2023-05-07T05:23:49;95257.00;;;17.90
14023;BMP180;7086;48.116;11.580;2023-05-07T05:26:16;95255.00;;;17.90
14023;BMP180;7086;48.116;11.580;2023-05-07T05:28:43;95261.00;;;17.90
14023;BMP180;7086;48.116;11.580;2023-05-07T05:31:10;95265.00;;;18.00
14023;BMP180;7086;48.116;11.580;2023-05-07T05:33:37;95237.00;;;18.00
14023;BMP180;7086;48.116;11.580;2023-05-07T05:36:04;95287.00;;;17.90
14023;BMP180;7086;48.116;11.580;2023-05-07T05:38:31;95274.00;;;18.10
14023;BMP180;7086;48.116;11.580;2023-05-07T05:40:59;95265.00;;;18.20
14023;BMP180;7086;48.116;11.580;2023-05-07T05:43:26;95260.00;;;18.30
14023;BMP180;7086;48.116;11.580;2023-05-07T05:45:53;95281.00;;;18.30
14023;BMP180;7086;48.116;11.580;2023-05-07T05:48:20;95269.00;;;18.40
14023;BMP180;7086;48.116;11.580;2023-05-07T05:50:46;95276.00;;;18.40
14023;BMP180;7086;48.116;11.580;2023-05-07T05:53:13;95280.00;;;18.50
14023;BMP180;7086;48.116;11.580;2023-05-07T05:55:41;95181.00;;;18.70
14023;BMP180;7086;48.116;11.580;2023-05-07T05:58:10;95277.00;;;19.00
14023;BMP180;7086;48.116;11.580;2023-05-07T06:00:37;95255.00;;;19.30
14023;BMP180;7086;48.116;11.580;2023-05-07T06:03:04;95274.00;;;19.90
14023;BMP180;7086;48.116;11.580;2023-05-07T06:05:31;95277.00;;;20.50
14023;BMP180;7086;48.116;11.580;2023-05-07T06:07:57;95254.00;;;21.10
14023;BMP180;7086;48.116;11.580;2023-05-07T06:10:24;95266.00;;;21.80
14023;BMP180;7086;48.116;11.580;2023-05-07T06:12:52;95279.00;;;22.40
14023;BMP180;7086;48.116;11.580;2023-05-07T06:15:20;95268.00;;;23.00
14023;BMP180;7086;48.116;11.580;2023-05-07T06:17:47;95277.00;;;23.70
14023;BMP180;7086;48.116;11.580;2023-05-07T06:20:14;95275.00;;;24.40
14023;BMP180;7086;48.116;11.580;2023-05-07T06:22:41;95266.00;;;24.90
14023;BMP180;7086;48.116;11.580;2023-05-07T06:25:08;95277.00;;;25.50
14023;BMP180;7086;48.116;11.580;2023-05-07T06:27:35;95277.00;;;26.00
14023;BMP180;7086;48.116;11.580;2023-05-07T06:30:03;95266.00;;;26.40
14023;BMP180;7086;48.116;11.580;2023-05-07T06:32:31;95229.00;;;26.90
14023;BMP180;7086;48.116;11.580;2023-05-07T06:34:58;95270.00;;;27.30
14023;BMP180;7086;48.116;11.580;2023-05-07T06:37:25;95251.00;;;27.80
14023;BMP180;7086;48.116;11.580;2023-05-07T06:39:52;95289.00;;;28.10
14023;BMP180;7086;48.116;11.580;2023-05-07T06:42:19;95286.00;;;28.50
14023;BMP180;7086;48.116;11.580;2023-05-07T06:44:45;95285.00;;;28.80
14023;BMP180;7086;48.116;11.580;2023-05-07T06:47:12;95291.00;;;29.20
14023;BMP180;7086;48.116;11.580;2023-05-07T06:49:40;95272.00;;;29.50
14023;BMP180;7086;48.116;11.580;2023-05-07T06:52:07;95293.00;;;29.70
14023;BMP180;7086;48.116;11.580;2023-05-07T06:54:34;95287.00;;;29.80
14023;BMP180;7086;48.116;11.580;2023-05-07T06:57:01;95296.00;;;30.00
14023;BMP180;7086;48.116;11.580;2023-05-07T06:59:28;95283.00;;;30.20
14023;BMP180;7086;48.116;11.580;2023-05-07T07:01:54;95303.00;;;30.40
14023;BMP180;7086;48.116;11.580;2023-05-07T07:04:21;95296.00;;;30.50
14023;BMP180;7086;48.116;11.580;2023-05-07T07:06:51;95287.00;;;30.80
14023;BMP180;7086;48.116;11.580;2023-05-07T07:09:18;95295.00;;;31.10
14023;BMP180;7086;48.116;11.580;2023-05-07T07:11:45;95295.00;;;31.40
14023;BMP180;7086;48.116;11.580;2023-05-07T07:14:12;95297.00;;;31.80
14023;BMP180;7086;48.116;11.580;2023-05-07T07:16:39;95299.00;;;32.00
14023;BMP180;7086;48.116;11.580;2023-05-07T07:19:06;95300.00;;;32.20
14023;BMP180;7086;48.116;11.580;2023-05-07T07:21:33;95298.00;;;32.40
14023;BMP180;7086;48.116;11.580;2023-05-07T07:24:01;95278.00;;;32.60
14023;BMP180;7086;48.116;11.580;2023-05-07T07:26:28;95291.00;;;32.70
14023;BMP180;7086;48.116;11.580;2023-05-07T07:28:54;95294.00;;;32.80
14023;BMP180;7086;48.116;11.580;2023-05-07T07:31:21;95304.00;;;32.90
14023;BMP180;7086;48.116;11.580;2023-05-07T07:33:48;95302.00;;;32.90
14023;BMP180;7086;48.116;11.580;2023-05-07T07:36:15;95296.00;;;32.80
14023;BMP180;7086;48.116;11.580;2023-05-07T07:38:42;95293.00;;;32.70
14023;BMP180;7086;48.116;11.580;2023-05-07T07:41:10;95306.00;;;32.60
14023;BMP180;7086;48.116;11.580;2023-05-07T07:43:37;95299.00;;;32.40
14023;BMP180;7086;48.116;11.580;2023-05-07T07:46:06;95314.00;;;32.20
14023;BMP180;7086;48.116;11.580;2023-05-07T07:48:33;95268.00;;;32.20
14023;BMP180;7086;48.116;11.580;2023-05-07T07:51:00;95307.00;;;32.20
14023;BMP180;7086;48.116;11.580;2023-05-07T07:53:27;95328.00;;;32.30
14023;BMP180;7086;48.116;11.580;2023-05-07T07:55:54;95323.00;;;32.40
14023;BMP180;7086;48.116;11.580;2023-05-07T07:58:22;95327.00;;;32.40
14023;BMP180;7086;48.116;11.580;2023-05-07T08:00:50;95267.00;;;32.40
14023;BMP180;7086;48.116;11.580;2023-05-07T08:03:21;95318.00;;;32.20
14023;BMP180;7086;48.116;11.580;2023-05-07T08:05:50;95254.00;;;32.00
14023;BMP180;7086;48.116;11.580;2023-05-07T08:08:18;95257.00;;;31.90
14023;BMP180;7086;48.116;11.580;2023-05-07T08:10:45;95315.00;;;31.80
14023;BMP180;7086;48.116;11.580;2023-05-07T08:13:15;95311.00;;;31.80
14023;BMP180;7086;48.116;11.580;2023-05-07T08:15:43;95278.00;;;31.80
14023;BMP180;7086;48.116;11.580;2023-05-07T08:18:11;95251.00;;;31.70
14023;BMP180;7086;48.116;11.580;2023-05-07T08:20:38;95264.00;;;31.80
14023;BMP180;7086;48.116;11.580;2023-05-07T08:23:05;95249.00;;;31.80
14023;BMP180;7086;48.116;11.580;2023-05-07T08:25:33;95336.00;;;31.70
14023;BMP180;7086;48.116;11.580;2023-05-07T08:28:00;95294.00;;;31.60
14023;BMP180;7086;48.116;11.580;2023-05-07T08:30:28;95324.00;;;31.50
14023;BMP180;7086;48.116;11.580;2023-05-07T08:33:12;95252.00;;;31.40
14023;BMP180;7086;48.116;11.580;2023-05-07T08:35:40;95348.00;;;31.10
14023;BMP180;7086;48.116;11.580;2023-05-07T08:38:23;95229.00;;;31.20
14023;BMP180;7086;48.116;11.580;2023-05-07T08:41:04;95319.00;;;31.20
14023;BMP180;7086;48.116;11.580;2023-05-07T08:43:33;95331.00;;;31.30
14023;BMP180;7086;48.116;11.580;2023-05-07T08:46:01;95250.00;;;31.70
14023;BMP180;7086;48.116;11.580;2023-05-07T08:48:32;95318.00;;;32.00
14023;BMP180;7086;48.116;11.580;2023-05-07T08:51:01;95309.00;;;32.20
14023;BMP180;7086;48.116;11.580;2023-05-07T08:53:33;95338.00;;;32.30
14023;BMP180;7086;48.116;11.580;2023-05-07T08:56:01;95283.00;;;32.60
14023;BMP180;7086;48.116;11.580;2023-05-07T08:58:29;95343.00;;;32.80
14023;BMP180;7086;48.116;11.580;2023-05-07T09:00:56;95264.00;;;33.20
14023;BMP180;7086;48.116;11.580;2023-05-07T09:03:25;95346.00;;;33.50
14023;BMP180;7086;48.116;11.580;2023-05-07T09:05:54;95337.00;;;33.70
14023;BMP180;7086;48.116;11.580;2023-05-07T09:08:25;95313.00;;;34.00
14023;BMP180;7086;48.116;11.580;2023-05-07T09:10:52;95286.00;;;34.20
14023;BMP180;7086;48.116;11.580;2023-05-07T09:13:23;95328.00;;;34.30
14023;BMP180;7086;48.116;11.580;2023-05-07T09:15:54;95279.00;;;34.40
14023;BMP180;7086;48.116;11.580;2023-05-07T09:18:25;95254.00;;;34.50
14023;BMP180;7086;48.116;11.580;2023-05-07T09:20:54;95279.00;;;34.30
14023;BMP180;7086;48.116;11.580;2023-05-07T09:23:21;95335.00;;;34.00
14023;BMP180;7086;48.116;11.580;2023-05-07T09:25:48;95325.00;;;33.90
14023;BMP180;7086;48.116;11.580;2023-05-07T09:28:15;95302.00;;;33.80
14023;BMP180;7086;48.116;11.580;2023-05-07T09:30:42;95276.00;;;33.80
14023;BMP180;7086;48.116;11.580;2023-05-07T09:33:09;95289.00;;;33.70
14023;BMP180;7086;48.116;11.580;2023-05-07T09:35:37;95314.00;;;33.60
14023;BMP180;7086;48.116;11.580;2023-05-07T09:38:06;95297.00;;;33.40
14023;BMP180;7086;48.116;11.580;2023-05-07T09:40:33;95316.00;;;33.10
14023;BMP180;7086;48.116;11.580;2023-05-07T09:43:09;95323.00;;;33.00
14023;BMP180;7086;48.116;11.580;2023-05-07T09:45:37;95324.00;;;33.00
14023;BMP180;7086;48.116;11.580;2023-05-07T09:48:06;95329.00;;;33.00
14023;BMP180;7086;48.116;11.580;2023-05-07T09:50:36;95323.00;;;32.80
14023;BMP180;7086;48.116;11.580;2023-05-07T09:53:09;95306.00;;;32.50
14023;BMP180;7086;48.116;11.580;2023-05-07T09:55:37;95325.00;;;32.30
14023;BMP180;7086;48.116;11.580;2023-05-07T09:58:06;95305.00;;;32.10
14023;BMP180;7086;48.116;11.580;2023-05-07T10:00:34;95320.00;;;31.80
14023;BMP180;7086;48.116;11.580;2023-05-07T10:03:03;95288.00;;;31.50
14023;BMP180;7086;48.116;11.580;2023-05-07T10:05:31;95311.00;;;31.20
14023;BMP180;7086;48.116;11.580;2023-05-07T10:07:59;95312.00;;;30.80
14023;BMP180;7086;48.116;11.580;2023-05-07T10:10:30;95320.00;;;30.90
14023;BMP180;7086;48.116;11.580;2023-05-07T10:12:57;95333.00;;;30.90
14023;BMP180;7086;48.116;11.580;2023-05-07T10:15:24;95333.00;;;30.90
14023;BMP180;7086;48.116;11.580;2023-05-07T10:17:53;95321.00;;;30.90
14023;BMP180;7086;48.116;11.580;2023-05-07T10:20:20;95312.00;;;30.70
14023;BMP180;7086;48.116;11.580;2023-05-07T10:22:48;95284.00;;;30.60
14023;BMP180;7086;48.116;11.580;2023-05-07T10:25:21;95312.00;;;30.60
14023;BMP180;7086;48.116;11.580;2023-05-07T10:27:51;95315.00;;;30.40
14023;BMP180;7086;48.116;11.580;2023-05-07T10:30:26;95317.00;;;30.30
14023;BMP180;7086;48.116;11.580;2023-05-07T10:32:56;95317.00;;;30.20
14023;BMP180;7086;48.116;11.580;2023-05-07T10:35:32;95323.00;;;30.10
14023;BMP180;7086;48.116;11.580;2023-05-07T10:38:03;95294.00;;;30.00
14023;BMP180;7086;48.116;11.580;2023-05-07T10:40:30;95298.00;;;29.80
14023;BMP180;7086;48.116;11.580;2023-05-07T10:43:00;95305.00;;;29.80
14023;BMP180;7086;48.116;11.580;2023-05-07T10:45:27;95325.00;;;29.80
14023;BMP180;7086;48.116;11.580;2023-05-07T10:48:09;95316.00;;;29.80
14023;BMP180;7086;48.116;11.580;2023-05-07T10:50:37;95295.00;;;29.80
14023;BMP180;7086;48.116;11.580;2023-05-07T10:53:24;95304.00;;;29.80
14023;BMP180;7086;48.116;11.580;2023-05-07T10:59:36;95326.00;;;29.80
14023;BMP180;7086;48.116;11.580;2023-05-07T11:02:09;95322.00;;;29.90
14023;BMP180;7086;48.116;11.580;2023-05-07T11:04:39;95334.00;;;29.70
14023;BMP180;7086;48.116;11.580;2023-05-07T11:07:31;95324.00;;;29.80
14023;BMP180;7086;48.116;11.580;2023-05-07T11:10:03;95297.00;;;29.90
14023;BMP180;7086;48.116;11.580;2023-05-07T11:12:50;95313.00;;;29.80
14023;BMP180;7086;48.116;11.580;2023-05-07T11:15:42;95324.00;;;29.60
14023;BMP180;7086;48.116;11.580;2023-05-07T11:18:11;95315.00;;;29.60
14023;BMP180;7086;48.116;11.580;2023-05-07T11:20:55;95329.00;;;29.50
14023;BMP180;7086;48.116;11.580;2023-05-07T11:23:57;95311.00;;;29.40
14023;BMP180;7086;48.116;11.580;2023-05-07T11:26:24;95316.00;;;29.40
14023;BMP180;7086;48.116;11.580;2023-05-07T11:28:52;95319.00;;;29.50
14023;BMP180;7086;48.116;11.580;2023-05-07T11:31:27;95307.00;;;29.50
14023;BMP180;7086;48.116;11.580;2023-05-07T11:33:55;95266.00;;;29.60
14023;BMP180;7086;48.116;11.580;2023-05-07T11:36:23;95286.00;;;29.60
14023;BMP180;7086;48.116;11.580;2023-05-07T11:38:51;95296.00;;;29.60
14023;BMP180;7086;48.116;11.580;2023-05-07T11:41:18;95299.00;;;29.60
14023;BMP180;7086;48.116;11.580;2023-05-07T11:43:59;95305.00;;;29.60
14023;BMP180;7086;48.116;11.580;2023-05-07T11:46:28;95294.00;;;29.60
14023;BMP180;7086;48.116;11.580;2023-05-07T11:48:55;95295.00;;;29.50
14023;BMP180;7086;48.116;11.580;2023-05-07T11:51:24;95303.00;;;29.50
14023;BMP180;7086;48.116;11.580;2023-05-07T11:53:52;95293.00;;;29.40
14023;BMP180;7086;48.116;11.580;2023-05-07T11:56:20;95304.00;;;29.30
14023;BMP180;7086;48.116;11.580;2023-05-07T11:58:52;95286.00;;;29.10
14023;BMP180;7086;48.116;11.580;2023-05-07T12:01:19;95316.00;;;28.90
14023;BMP180;7086;48.116;11.580;2023-05-07T12:03:47;95228.00;;;28.70
14023;BMP180;7086;48.116;11.580;2023-05-07T12:06:16;95294.00;;;28.40
14023;BMP180;7086;48.116;11.580;2023-05-07T12:08:44;95286.00;;;28.30
14023;BMP180;7086;48.116;11.580;2023-05-07T12:11:13;95293.00;;;28.20
14023;BMP180;7086;48.116;11.580;2023-05-07T12:13:41;95298.00;;;28.00
14023;BMP180;7086;48.116;11.580;2023-05-07T12:16:09;95300.00;;;28.10
14023;BMP180;7086;48.116;11.580;2023-05-07T12:18:37;95267.00;;;28.10
14023;BMP180;7086;48.116;11.580;2023-05-07T12:21:08;95227.00;;;28.30
14023;BMP180;7086;48.116;11.580;2023-05-07T12:23:37;95291.00;;;28.30
14023;BMP180;7086;48.116;11.580;2023-05-07T12:26:04;95294.00;;;28.40
14023;BMP180;7086;48.116;11.580;2023-05-07T12:28:36;95304.00;;;28.40
14023;BMP180;7086;48.116;11.580;2023-05-07T12:31:04;95289.00;;;28.40
14023;BMP180;7086;48.116;11.580;2023-05-07T12:33:31;95261.00;;;28.40
14023;BMP180;7086;48.116;11.580;2023-05-07T12:35:58;95274.00;;;28.30
14023;BMP180;7086;48.116;11.580;2023-05-07T12:38:34;95261.00;;;28.20
14023;BMP180;7086;48.116;11.580;2023-05-07T12:41:02;95274.00;;;28.10
14023;BMP180;7086;48.116;11.580;2023-05-07T12:43:29;95281.00;;;28.00
14023;BMP180;7086;48.116;11.580;2023-05-07T12:45:57;95274.00;;;28.00
14023;BMP180;7086;48.116;11.580;2023-05-07T12:48:24;95263.00;;;28.00
14023;BMP180;7086;48.116;11.580;2023-05-07T12:50:53;95260.00;;;27.90
14023;BMP180;7086;48.116;11.580;2023-05-07T12:53:21;95257.00;;;27.90
14023;BMP180;7086;48.116;11.580;2023-05-07T12:55:52;95263.00;;;27.80
14023;BMP180;7086;48.116;11.580;2023-05-07T12:58:20;95270.00;;;27.80
14023;BMP180;7086;48.116;11.580;2023-05-07T13:00:48;95259.00;;;27.80
14023;BMP180;7086;48.116;11.580;2023-05-07T13:03:23;95263.00;;;27.70
14023;BMP180;7086;48.116;11.580;2023-05-07T13:05:50;95259.00;;;27.60
14023;BMP180;7086;48.116;11.580;2023-05-07T13:08:27;95274.00;;;27.60
14023;BMP180;7086;48.116;11.580;2023-05-07T13:10:56;95261.00;;;27.70
14023;BMP180;7086;48.116;11.580;2023-05-07T13:13:23;95269.00;;;27.60
14023;BMP180;7086;48.116;11.580;2023-05-07T13:15:50;95247.00;;;27.60
14023;BMP180;7086;48.116;11.580;2023-05-07T13:18:17;95265.00;;;27.60
14023;BMP180;7086;48.116;11.580;2023-05-07T13:20:44;95266.00;;;27.50
14023;BMP180;7086;48.116;11.580;2023-05-07T13:23:10;95267.00;;;27.50
14023;BMP180;7086;48.116;11.580;2023-05-07T13:25:37;95258.00;;;27.40
14023;BMP180;7086;48.116;11.580;2023-05-07T13:28:05;95263.00;;;27.40
14023;BMP180;7086;48.116;11.580;2023-05-07T13:30:32;95265.00;;;27.40
14023;BMP180;7086;48.116;11.580;2023-05-07T13:33:00;95271.00;;;27.50
14023;BMP180;7086;48.116;11.580;2023-05-07T13:35:27;95268.00;;;27.50
14023;BMP180;7086;48.116;11.580;2023-05-07T13:37:53;95253.00;;;27.50
14023;BMP180;7086;48.116;11.580;2023-05-07T13:40:21;95258.00;;;27.60
14023;BMP180;7086;48.116;11.580;2023-05-07T13:42:48;95281.00;;;27.70
14023;BMP180;7086;48.116;11.580;2023-05-07T13:45:17;95268.00;;;27.80
14023;BMP180;7086;48.116;11.580;2023-05-07T13:47:45;95273.00;;;27.90
14023;BMP180;7086;48.116;11.580;2023-05-07T13:50:12;95251.00;;;28.00
14023;BMP180;7086;48.116;11.580;2023-05-07T13:52:41;95254.00;;;28.00
14023;BMP180;7086;48.116;11.580;2023-05-07T13:55:09;95271.00;;;28.10
14023;BMP180;7086;48.116;11.580;2023-05-07T13:57:36;95268.00;;;28.10
14023;BMP180;7086;48.116;11.580;2023-05-07T14:00:04;95260.00;;;28.10
14023;BMP180;7086;48.116;11.580;2023-05-07T14:02:33;95275.00;;;28.10
14023;BMP180;7086;48.116;11.580;2023-05-07T14:05:00;95270.00;;;28.00
14023;BMP180;7086;48.116;11.580;2023-05-07T14:07:27;95266.00;;;28.00
14023;BMP180;7086;48.116;11.580;2023-05-07T14:09:54;95270.00;;;28.00
14023;BMP180;7086;48.116;11.580;2023-05-07T14:12:21;95264.00;;;28.10
14023;BMP180;7086;48.116;11.580;2023-05-07T14:14:48;95246.00;;;28.00
14023;BMP180;7086;48.116;11.580;2023-05-07T14:17:15;95236.00;;;28.00
14023;BMP180;7086;48.116;11.580;2023-05-07T14:19:44;95267.00;;;28.00